createdAt,value
2022-11-16T00:00:06.390Z,991.84
2022-11-16T00:00:27.554Z,991.84
2022-11-16T00:00:48.597Z,991.86
2022-11-16T00:01:09.645Z,991.84
2022-11-16T00:01:30.728Z,991.84
2022-11-16T00:01:51.891Z,991.82
2022-11-16T00:02:13.036Z,991.82
2022-11-16T00:02:34.131Z,991.80
2022-11-16T00:02:55.235Z,991.82
2022-11-16T00:03:16.287Z,991.82
2022-11-16T00:03:37.513Z,991.82
2022-11-16T00:03:58.586Z,991.82
2022-11-16T00:04:19.603Z,991.82
2022-11-16T00:04:40.668Z,991.80
2022-11-16T00:05:01.712Z,991.82
2022-11-16T00:05:27.930Z,991.82
2022-11-16T00:05:49.760Z,991.80
2022-11-16T00:06:10.823Z,991.80
2022-11-16T00:06:31.866Z,991.80
2022-11-16T00:06:52.985Z,991.82
2022-11-16T00:07:14.068Z,991.82
2022-11-16T00:07:35.172Z,991.82
2022-11-16T00:07:56.203Z,991.82
2022-11-16T00:08:17.270Z,991.82
2022-11-16T00:08:38.458Z,991.80
2022-11-16T00:08:59.497Z,991.78
2022-11-16T00:09:20.551Z,991.76
2022-11-16T00:09:41.661Z,991.78
2022-11-16T00:10:02.679Z,991.78
2022-11-16T00:10:23.755Z,991.80
2022-11-16T00:10:44.809Z,991.80
2022-11-16T00:11:05.851Z,991.80
2022-11-16T00:11:26.909Z,991.80
2022-11-16T00:11:47.955Z,991.82
2022-11-16T00:12:09.007Z,991.82
2022-11-16T00:12:30.064Z,991.82
2022-11-16T00:12:51.111Z,991.82
2022-11-16T00:13:12.159Z,991.82
2022-11-16T00:13:33.206Z,991.82
2022-11-16T00:13:54.508Z,991.82
2022-11-16T00:14:15.551Z,991.82
2022-11-16T00:14:36.607Z,991.84
2022-11-16T00:14:57.702Z,991.84
2022-11-16T00:15:18.761Z,991.80
2022-11-16T00:15:39.784Z,991.84
2022-11-16T00:16:00.845Z,991.82
2022-11-16T00:16:21.907Z,991.82
2022-11-16T00:16:42.970Z,991.80
2022-11-16T00:17:04.023Z,991.80
2022-11-16T00:17:25.105Z,991.82
2022-11-16T00:17:46.130Z,991.80
2022-11-16T00:18:07.184Z,991.82
2022-11-16T00:18:28.235Z,991.82
2022-11-16T00:18:49.290Z,991.82
2022-11-16T00:19:10.358Z,991.84
2022-11-16T00:19:31.427Z,991.84
2022-11-16T00:19:52.521Z,991.82
2022-11-16T00:20:13.592Z,991.84
2022-11-16T00:20:34.666Z,991.80
2022-11-16T00:20:55.721Z,991.84
2022-11-16T00:21:16.755Z,991.84
2022-11-16T00:21:37.799Z,991.82
2022-11-16T00:21:58.894Z,991.84
2022-11-16T00:22:19.984Z,991.84
2022-11-16T00:22:41.033Z,991.84
2022-11-16T00:23:02.095Z,991.82
2022-11-16T00:23:23.151Z,991.84
2022-11-16T00:23:44.199Z,991.84
2022-11-16T00:24:05.432Z,991.84
2022-11-16T00:24:26.581Z,991.84
2022-11-16T00:24:47.657Z,991.84
2022-11-16T00:25:08.717Z,991.84
2022-11-16T00:25:29.770Z,991.88
2022-11-16T00:25:50.834Z,991.86
2022-11-16T00:26:11.892Z,991.88
2022-11-16T00:26:32.952Z,991.90
2022-11-16T00:26:54.024Z,991.88
2022-11-16T00:27:15.070Z,991.90
2022-11-16T00:27:36.133Z,991.84
2022-11-16T00:27:57.200Z,991.90
2022-11-16T00:28:18.232Z,991.86
2022-11-16T00:28:39.309Z,991.88
2022-11-16T00:29:00.339Z,991.88
2022-11-16T00:29:21.497Z,991.92
2022-11-16T00:29:42.578Z,991.88
2022-11-16T00:30:03.599Z,991.90
2022-11-16T00:30:24.671Z,991.84
2022-11-16T00:30:45.703Z,991.84
2022-11-16T00:31:06.754Z,991.84
2022-11-16T00:31:27.975Z,991.82
2022-11-16T00:31:49.036Z,991.80
2022-11-16T00:32:10.080Z,991.82
2022-11-16T00:32:31.168Z,991.80
2022-11-16T00:32:52.219Z,991.82
2022-11-16T00:33:13.285Z,991.80
2022-11-16T00:33:34.316Z,991.80
2022-11-16T00:33:55.367Z,991.82
2022-11-16T00:34:16.515Z,991.78
2022-11-16T00:34:37.555Z,991.82
2022-11-16T00:34:58.607Z,991.82
2022-11-16T00:35:19.679Z,991.86
2022-11-16T00:35:40.707Z,991.84
2022-11-16T00:36:01.768Z,991.84
2022-11-16T00:36:22.877Z,991.86
2022-11-16T00:36:43.977Z,991.86
2022-11-16T00:37:05.012Z,991.86
2022-11-16T00:37:26.046Z,991.90
2022-11-16T00:37:47.098Z,991.88
2022-11-16T00:38:08.152Z,991.88
2022-11-16T00:38:29.219Z,991.90
2022-11-16T00:38:50.274Z,991.90
2022-11-16T00:39:11.344Z,991.88
2022-11-16T00:39:32.371Z,991.86
2022-11-16T00:39:53.431Z,991.88
2022-11-16T00:40:14.487Z,991.88
2022-11-16T00:40:35.540Z,991.88
2022-11-16T00:40:56.633Z,991.86
2022-11-16T00:41:17.673Z,991.90
2022-11-16T00:41:38.721Z,991.84
2022-11-16T00:41:59.792Z,991.88
2022-11-16T00:42:20.861Z,991.88
2022-11-16T00:42:41.938Z,991.88
2022-11-16T00:43:02.976Z,991.88
2022-11-16T00:43:24.024Z,991.86
2022-11-16T00:43:45.091Z,991.88
2022-11-16T00:44:06.131Z,991.90
2022-11-16T00:44:27.177Z,991.86
2022-11-16T00:44:48.227Z,991.84
2022-11-16T00:45:09.282Z,991.86
2022-11-16T00:45:30.350Z,991.84
2022-11-16T00:45:51.457Z,991.84
2022-11-16T00:46:12.462Z,991.84
2022-11-16T00:46:33.514Z,991.84
2022-11-16T00:46:54.563Z,991.82
2022-11-16T00:47:15.638Z,991.84
2022-11-16T00:47:36.687Z,991.82
2022-11-16T00:48:00.414Z,991.80
2022-11-16T00:48:21.837Z,991.82
2022-11-16T00:48:42.886Z,991.84
2022-11-16T00:49:03.944Z,991.82
2022-11-16T00:49:25.001Z,991.82
2022-11-16T00:49:46.045Z,991.86
2022-11-16T00:50:07.116Z,991.84
2022-11-16T00:50:28.145Z,991.84
2022-11-16T00:50:49.201Z,991.84
2022-11-16T00:51:10.260Z,991.82
2022-11-16T00:51:31.318Z,991.84
2022-11-16T00:51:52.363Z,991.84
2022-11-16T00:52:13.451Z,991.84
2022-11-16T00:52:34.603Z,991.82
2022-11-16T00:52:55.648Z,991.84
2022-11-16T00:53:16.710Z,991.86
2022-11-16T00:53:37.775Z,991.84
2022-11-16T00:53:58.830Z,991.84
2022-11-16T00:54:19.868Z,991.86
2022-11-16T00:54:40.932Z,991.86
2022-11-16T00:55:01.979Z,991.88
2022-11-16T00:55:23.061Z,991.88
2022-11-16T00:55:44.108Z,991.88
2022-11-16T00:56:05.149Z,991.86
2022-11-16T00:56:26.211Z,991.88
2022-11-16T00:56:47.261Z,991.86
2022-11-16T00:57:08.308Z,991.90
2022-11-16T00:57:29.379Z,991.90
2022-11-16T00:57:50.565Z,991.88
2022-11-16T00:58:11.628Z,991.92
2022-11-16T00:58:33.121Z,991.88
2022-11-16T00:58:54.294Z,991.90
2022-11-16T00:59:15.341Z,991.90
2022-11-16T00:59:36.392Z,991.90
2022-11-16T00:59:57.446Z,991.88
2022-11-16T01:00:18.519Z,991.90
2022-11-16T01:00:39.590Z,991.90
2022-11-16T01:01:00.666Z,991.88
2022-11-16T01:01:21.888Z,991.90
2022-11-16T01:01:43.028Z,991.90
2022-11-16T01:02:04.101Z,991.90
2022-11-16T01:02:25.132Z,991.92
2022-11-16T01:02:46.236Z,991.92
2022-11-16T01:03:07.263Z,991.92
2022-11-16T01:03:28.333Z,991.94
2022-11-16T01:03:49.367Z,991.94
2022-11-16T01:04:10.415Z,991.90
2022-11-16T01:04:31.483Z,991.88
2022-11-16T01:04:52.647Z,991.88
2022-11-16T01:05:13.705Z,991.90
2022-11-16T01:05:34.762Z,991.86
2022-11-16T01:05:55.812Z,991.88
2022-11-16T01:06:16.867Z,991.88
2022-11-16T01:06:37.920Z,991.88
2022-11-16T01:06:59.028Z,991.86
2022-11-16T01:07:20.131Z,991.86
2022-11-16T01:07:41.185Z,991.84
2022-11-16T01:08:02.221Z,991.84
2022-11-16T01:08:23.269Z,991.84
2022-11-16T01:08:44.320Z,991.86
2022-11-16T01:09:05.390Z,991.86
2022-11-16T01:09:26.430Z,991.84
2022-11-16T01:09:47.517Z,991.84
2022-11-16T01:10:08.713Z,991.86
2022-11-16T01:10:29.766Z,991.86
2022-11-16T01:10:50.825Z,991.86
2022-11-16T01:11:11.882Z,991.88
2022-11-16T01:11:32.937Z,991.86
2022-11-16T01:11:53.970Z,991.86
2022-11-16T01:12:15.019Z,991.84
2022-11-16T01:12:36.068Z,991.82
2022-11-16T01:12:57.167Z,991.84
2022-11-16T01:13:18.212Z,991.86
2022-11-16T01:13:39.292Z,991.78
2022-11-16T01:14:00.402Z,991.80
2022-11-16T01:14:21.417Z,991.80
2022-11-16T01:14:42.477Z,991.80
2022-11-16T01:15:03.522Z,991.82
2022-11-16T01:15:24.572Z,991.84
2022-11-16T01:15:45.663Z,991.80
2022-11-16T01:16:06.703Z,991.80
2022-11-16T01:16:27.757Z,991.84
2022-11-16T01:16:48.815Z,991.84
2022-11-16T01:17:09.880Z,991.80
2022-11-16T01:17:30.915Z,991.80
2022-11-16T01:17:51.959Z,991.78
2022-11-16T01:18:13.013Z,991.78
2022-11-16T01:18:34.311Z,991.76
2022-11-16T01:18:55.451Z,991.78
2022-11-16T01:19:16.555Z,991.78
2022-11-16T01:19:37.606Z,991.76
2022-11-16T01:19:58.678Z,991.76
2022-11-16T01:20:19.710Z,991.78
2022-11-16T01:20:40.759Z,991.76
2022-11-16T01:21:01.936Z,991.72
2022-11-16T01:21:22.990Z,991.76
2022-11-16T01:21:44.031Z,991.76
2022-11-16T01:22:05.084Z,991.76
2022-11-16T01:22:26.140Z,991.72
2022-11-16T01:22:47.185Z,991.72
2022-11-16T01:23:08.232Z,991.76
2022-11-16T01:23:29.307Z,991.72
2022-11-16T01:23:50.384Z,991.74
2022-11-16T01:24:11.448Z,991.67
2022-11-16T01:24:32.507Z,991.67
2022-11-16T01:24:53.563Z,991.69
2022-11-16T01:25:14.608Z,991.67
2022-11-16T01:25:35.660Z,991.69
2022-11-16T01:25:56.737Z,991.69
2022-11-16T01:26:17.931Z,991.69
2022-11-16T01:26:38.979Z,991.69
2022-11-16T01:27:00.033Z,991.69
2022-11-16T01:27:21.080Z,991.69
2022-11-16T01:27:42.125Z,991.69
2022-11-16T01:28:03.198Z,991.69
2022-11-16T01:28:24.256Z,991.69
2022-11-16T01:28:45.303Z,991.69
2022-11-16T01:29:06.363Z,991.65
2022-11-16T01:29:27.393Z,991.65
2022-11-16T01:29:48.445Z,991.67
2022-11-16T01:30:09.513Z,991.67
2022-11-16T01:30:30.598Z,991.67
2022-11-16T01:30:51.660Z,991.67
2022-11-16T01:31:12.693Z,991.67
2022-11-16T01:31:33.849Z,991.67
2022-11-16T01:31:54.899Z,991.67
2022-11-16T01:32:15.949Z,991.65
2022-11-16T01:32:37.003Z,991.65
2022-11-16T01:32:58.052Z,991.69
2022-11-16T01:33:19.113Z,991.67
2022-11-16T01:33:40.155Z,991.69
2022-11-16T01:34:01.256Z,991.65
2022-11-16T01:34:22.281Z,991.67
2022-11-16T01:34:43.328Z,991.70
2022-11-16T01:35:04.396Z,991.67
2022-11-16T01:35:25.458Z,991.67
2022-11-16T01:35:46.527Z,991.67
2022-11-16T01:36:07.559Z,991.69
2022-11-16T01:36:28.636Z,991.67
2022-11-16T01:36:49.679Z,991.67
2022-11-16T01:37:10.730Z,991.69
2022-11-16T01:37:31.797Z,991.69
2022-11-16T01:37:52.866Z,991.67
2022-11-16T01:38:13.891Z,991.67
2022-11-16T01:38:35.365Z,991.67
2022-11-16T01:38:56.591Z,991.67
2022-11-16T01:39:17.652Z,991.67
2022-11-16T01:39:38.701Z,991.67
2022-11-16T01:39:59.771Z,991.69
2022-11-16T01:40:20.800Z,991.69
2022-11-16T01:40:41.856Z,991.69
2022-11-16T01:41:02.909Z,991.67
2022-11-16T01:41:24.014Z,991.69
2022-11-16T01:41:45.162Z,991.65
2022-11-16T01:42:06.210Z,991.65
2022-11-16T01:42:27.279Z,991.67
2022-11-16T01:42:48.334Z,991.67
2022-11-16T01:43:09.385Z,991.67
2022-11-16T01:43:30.435Z,991.65
2022-11-16T01:43:51.490Z,991.65
2022-11-16T01:44:12.536Z,991.65
2022-11-16T01:44:33.600Z,991.67
2022-11-16T01:44:54.665Z,991.65
2022-11-16T01:45:15.813Z,991.65
2022-11-16T01:45:36.891Z,991.65
2022-11-16T01:45:57.984Z,991.63
2022-11-16T01:46:19.018Z,991.63
2022-11-16T01:46:40.073Z,991.65
2022-11-16T01:47:01.141Z,991.61
2022-11-16T01:47:22.177Z,991.61
2022-11-16T01:47:43.233Z,991.61
2022-11-16T01:48:04.315Z,991.61
2022-11-16T01:48:25.403Z,991.57
2022-11-16T01:48:46.490Z,991.59
2022-11-16T01:49:07.636Z,991.59
2022-11-16T01:49:28.650Z,991.59
2022-11-16T01:49:49.696Z,991.57
2022-11-16T01:50:10.770Z,991.55
2022-11-16T01:50:31.819Z,991.55
2022-11-16T01:50:52.871Z,991.57
2022-11-16T01:51:13.934Z,991.55
2022-11-16T01:51:34.988Z,991.53
2022-11-16T01:51:56.041Z,991.55
2022-11-16T01:52:17.086Z,991.55
2022-11-16T01:52:38.150Z,991.53
2022-11-16T01:52:59.200Z,991.55
2022-11-16T01:53:20.243Z,991.53
2022-11-16T01:53:41.305Z,991.55
2022-11-16T01:54:02.357Z,991.51
2022-11-16T01:54:23.399Z,991.49
2022-11-16T01:54:44.469Z,991.51
2022-11-16T01:55:05.532Z,991.49
2022-11-16T01:55:26.600Z,991.49
2022-11-16T01:55:47.662Z,991.51
2022-11-16T01:56:08.743Z,991.51
2022-11-16T01:56:29.773Z,991.51
2022-11-16T01:56:50.840Z,991.51
2022-11-16T01:57:11.882Z,991.53
2022-11-16T01:57:32.920Z,991.53
2022-11-16T01:57:53.980Z,991.51
2022-11-16T01:58:15.022Z,991.49
2022-11-16T01:58:36.487Z,991.49
2022-11-16T01:58:57.607Z,991.51
2022-11-16T01:59:18.670Z,991.51
2022-11-16T01:59:39.715Z,991.49
2022-11-16T02:00:00.765Z,991.47
2022-11-16T02:00:21.811Z,991.47
2022-11-16T02:00:42.926Z,991.49
2022-11-16T02:01:04.162Z,991.47
2022-11-16T02:01:25.317Z,991.47
2022-11-16T02:01:46.362Z,991.47
2022-11-16T02:02:07.397Z,991.47
2022-11-16T02:02:28.450Z,991.45
2022-11-16T02:02:49.507Z,991.41
2022-11-16T02:03:10.581Z,991.45
2022-11-16T02:03:31.631Z,991.43
2022-11-16T02:03:52.670Z,991.43
2022-11-16T02:04:13.716Z,991.45
2022-11-16T02:04:34.767Z,991.47
2022-11-16T02:04:55.825Z,991.39
2022-11-16T02:05:16.876Z,991.47
2022-11-16T02:05:37.926Z,991.41
2022-11-16T02:05:58.977Z,991.41
2022-11-16T02:06:20.070Z,991.41
2022-11-16T02:06:41.117Z,991.41
2022-11-16T02:07:02.208Z,991.41
2022-11-16T02:07:23.331Z,991.43
2022-11-16T02:07:44.424Z,991.41
2022-11-16T02:08:05.494Z,991.39
2022-11-16T02:08:26.553Z,991.41
2022-11-16T02:08:47.606Z,991.41
2022-11-16T02:09:08.665Z,991.37
2022-11-16T02:09:29.716Z,991.37
2022-11-16T02:09:50.787Z,991.37
2022-11-16T02:10:11.829Z,991.37
2022-11-16T02:10:32.965Z,991.35
2022-11-16T02:10:54.003Z,991.35
2022-11-16T02:11:15.087Z,991.35
2022-11-16T02:11:36.111Z,991.39
2022-11-16T02:11:57.159Z,991.37
2022-11-16T02:12:18.278Z,991.35
2022-11-16T02:12:39.320Z,991.35
2022-11-16T02:13:00.375Z,991.33
2022-11-16T02:13:21.429Z,991.29
2022-11-16T02:13:42.475Z,991.31
2022-11-16T02:14:03.537Z,991.29
2022-11-16T02:14:24.586Z,991.31
2022-11-16T02:14:45.669Z,991.31
2022-11-16T02:15:06.742Z,991.31
2022-11-16T02:15:27.794Z,991.27
2022-11-16T02:15:48.871Z,991.31
2022-11-16T02:16:09.953Z,991.27
2022-11-16T02:16:30.992Z,991.29
2022-11-16T02:16:52.064Z,991.31
2022-11-16T02:17:13.127Z,991.29
2022-11-16T02:17:34.194Z,991.29
2022-11-16T02:17:55.227Z,991.33
2022-11-16T02:18:16.285Z,991.31
2022-11-16T02:18:37.353Z,991.29
2022-11-16T02:18:58.407Z,991.29
2022-11-16T02:19:19.457Z,991.31
2022-11-16T02:19:40.547Z,991.29
2022-11-16T02:20:01.623Z,991.29
2022-11-16T02:20:22.645Z,991.31
2022-11-16T02:20:43.704Z,991.27
2022-11-16T02:21:04.870Z,991.31
2022-11-16T02:21:25.926Z,991.29
2022-11-16T02:21:46.982Z,991.29
2022-11-16T02:22:08.081Z,991.27
2022-11-16T02:22:29.113Z,991.27
2022-11-16T02:22:50.160Z,991.27
2022-11-16T02:23:11.204Z,991.29
2022-11-16T02:23:32.247Z,991.29
2022-11-16T02:23:53.321Z,991.27
2022-11-16T02:24:14.373Z,991.31
2022-11-16T02:24:35.406Z,991.29
2022-11-16T02:24:56.467Z,991.29
2022-11-16T02:25:17.538Z,991.29
2022-11-16T02:25:38.588Z,991.29
2022-11-16T02:25:59.633Z,991.29
2022-11-16T02:26:20.804Z,991.27
2022-11-16T02:26:41.852Z,991.27
2022-11-16T02:27:02.926Z,991.29
2022-11-16T02:27:23.960Z,991.29
2022-11-16T02:27:45.019Z,991.27
2022-11-16T02:28:06.073Z,991.29
2022-11-16T02:28:27.144Z,991.27
2022-11-16T02:28:48.176Z,991.29
2022-11-16T02:29:09.307Z,991.29
2022-11-16T02:29:30.352Z,991.29
2022-11-16T02:29:51.418Z,991.29
2022-11-16T02:30:12.465Z,991.29
2022-11-16T02:30:33.512Z,991.29
2022-11-16T02:30:54.567Z,991.29
2022-11-16T02:31:15.683Z,991.31
2022-11-16T02:31:36.736Z,991.29
2022-11-16T02:31:57.796Z,991.27
2022-11-16T02:32:18.847Z,991.29
2022-11-16T02:32:39.902Z,991.29
2022-11-16T02:33:00.946Z,991.25
2022-11-16T02:33:22.003Z,991.25
2022-11-16T02:33:43.074Z,991.25
2022-11-16T02:34:04.106Z,991.25
2022-11-16T02:34:25.193Z,991.23
2022-11-16T02:34:46.234Z,991.25
2022-11-16T02:35:07.287Z,991.27
2022-11-16T02:35:28.341Z,991.25
2022-11-16T02:35:49.397Z,991.23
2022-11-16T02:36:10.509Z,991.21
2022-11-16T02:36:31.542Z,991.23
2022-11-16T02:36:52.625Z,991.23
2022-11-16T02:37:13.681Z,991.23
2022-11-16T02:37:34.732Z,991.25
2022-11-16T02:37:55.795Z,991.23
2022-11-16T02:38:16.842Z,991.18
2022-11-16T02:38:37.885Z,991.16
2022-11-16T02:38:58.985Z,991.18
2022-11-16T02:39:20.000Z,991.23
2022-11-16T02:39:41.064Z,991.16
2022-11-16T02:40:02.124Z,991.16
2022-11-16T02:40:23.158Z,991.18
2022-11-16T02:40:44.241Z,991.18
2022-11-16T02:41:05.314Z,991.18
2022-11-16T02:41:26.405Z,991.19
2022-11-16T02:41:47.432Z,991.19
2022-11-16T02:42:08.618Z,991.19
2022-11-16T02:42:29.668Z,991.18
2022-11-16T02:42:50.718Z,991.18
2022-11-16T02:43:11.770Z,991.19
2022-11-16T02:43:32.828Z,991.19
2022-11-16T02:43:53.877Z,991.19
2022-11-16T02:44:14.924Z,991.19
2022-11-16T02:44:35.976Z,991.19
2022-11-16T02:44:57.020Z,991.19
2022-11-16T02:45:18.085Z,991.19
2022-11-16T02:45:39.133Z,991.18
2022-11-16T02:46:00.186Z,991.19
2022-11-16T02:46:21.272Z,991.21
2022-11-16T02:46:42.304Z,991.21
2022-11-16T02:47:03.354Z,991.21
2022-11-16T02:47:24.423Z,991.18
2022-11-16T02:47:45.468Z,991.21
2022-11-16T02:48:06.520Z,991.21
2022-11-16T02:48:27.566Z,991.23
2022-11-16T02:48:48.627Z,991.21
2022-11-16T02:49:09.678Z,991.23
2022-11-16T02:49:30.736Z,991.19
2022-11-16T02:49:51.785Z,991.19
2022-11-16T02:50:12.841Z,991.19
2022-11-16T02:50:33.899Z,991.19
2022-11-16T02:50:54.970Z,991.19
2022-11-16T02:51:16.021Z,991.19
2022-11-16T02:51:37.083Z,991.19
2022-11-16T02:51:58.117Z,991.21
2022-11-16T02:52:19.166Z,991.21
2022-11-16T02:52:40.233Z,991.18
2022-11-16T02:53:01.285Z,991.16
2022-11-16T02:53:22.327Z,991.19
2022-11-16T02:53:43.405Z,991.18
2022-11-16T02:54:04.448Z,991.18
2022-11-16T02:54:25.496Z,991.18
2022-11-16T02:54:46.544Z,991.16
2022-11-16T02:55:07.593Z,991.14
2022-11-16T02:55:28.644Z,991.12
2022-11-16T02:55:49.717Z,991.14
2022-11-16T02:56:10.771Z,991.12
2022-11-16T02:56:31.874Z,991.14
2022-11-16T02:56:52.874Z,991.10
2022-11-16T02:57:13.932Z,991.08
2022-11-16T02:57:34.999Z,991.08
2022-11-16T02:57:56.049Z,991.08
2022-11-16T02:58:17.111Z,991.08
2022-11-16T02:58:38.167Z,991.10
2022-11-16T02:58:59.278Z,991.06
2022-11-16T02:59:20.315Z,991.08
2022-11-16T02:59:41.365Z,991.08
2022-11-16T03:00:02.423Z,991.06
2022-11-16T03:00:23.481Z,991.00
2022-11-16T03:00:44.571Z,991.02
2022-11-16T03:01:05.755Z,991.02
2022-11-16T03:01:26.881Z,991.02
2022-11-16T03:01:47.906Z,990.98
2022-11-16T03:02:08.967Z,991.04
2022-11-16T03:02:30.010Z,991.02
2022-11-16T03:02:51.184Z,991.02
2022-11-16T03:03:12.287Z,991.00
2022-11-16T03:03:33.357Z,991.04
2022-11-16T03:03:54.432Z,991.02
2022-11-16T03:04:15.464Z,991.02
2022-11-16T03:04:36.519Z,991.02
2022-11-16T03:04:57.563Z,991.04
2022-11-16T03:05:18.615Z,991.00
2022-11-16T03:05:39.663Z,991.00
2022-11-16T03:06:00.764Z,991.00
2022-11-16T03:06:21.808Z,990.98
2022-11-16T03:06:42.843Z,991.00
2022-11-16T03:07:03.967Z,991.00
2022-11-16T03:07:25.071Z,991.00
2022-11-16T03:07:46.161Z,991.02
2022-11-16T03:08:07.318Z,991.02
2022-11-16T03:08:28.364Z,991.00
2022-11-16T03:08:49.421Z,990.98
2022-11-16T03:09:10.480Z,991.00
2022-11-16T03:09:31.538Z,990.98
2022-11-16T03:09:52.579Z,991.02
2022-11-16T03:10:13.631Z,990.98
2022-11-16T03:10:34.700Z,991.00
2022-11-16T03:10:55.748Z,990.98
2022-11-16T03:11:16.842Z,990.96
2022-11-16T03:11:37.863Z,990.96
2022-11-16T03:11:59.102Z,990.96
2022-11-16T03:12:20.148Z,990.96
2022-11-16T03:12:41.199Z,990.94
2022-11-16T03:13:02.252Z,990.96
2022-11-16T03:13:23.323Z,990.92
2022-11-16T03:13:44.390Z,990.94
2022-11-16T03:14:05.418Z,990.94
2022-11-16T03:14:26.498Z,990.94
2022-11-16T03:14:47.561Z,990.90
2022-11-16T03:15:08.624Z,990.88
2022-11-16T03:15:29.661Z,990.90
2022-11-16T03:15:50.711Z,990.88
2022-11-16T03:16:11.791Z,990.90
2022-11-16T03:16:32.831Z,990.90
2022-11-16T03:16:53.858Z,990.88
2022-11-16T03:17:14.917Z,990.88
2022-11-16T03:17:35.996Z,990.90
2022-11-16T03:17:57.063Z,990.86
2022-11-16T03:18:18.099Z,990.88
2022-11-16T03:18:39.196Z,990.84
2022-11-16T03:19:00.247Z,990.88
2022-11-16T03:19:21.301Z,990.86
2022-11-16T03:19:42.356Z,990.84
2022-11-16T03:20:03.415Z,990.88
2022-11-16T03:20:24.448Z,990.90
2022-11-16T03:20:45.516Z,990.84
2022-11-16T03:21:06.555Z,990.82
2022-11-16T03:21:27.609Z,990.82
2022-11-16T03:21:48.659Z,990.82
2022-11-16T03:22:09.737Z,990.86
2022-11-16T03:22:30.771Z,990.84
2022-11-16T03:22:51.818Z,990.88
2022-11-16T03:23:12.882Z,990.82
2022-11-16T03:23:33.923Z,990.84
2022-11-16T03:23:55.093Z,990.82
2022-11-16T03:24:16.182Z,990.82
2022-11-16T03:24:37.215Z,990.82
2022-11-16T03:24:58.267Z,990.82
2022-11-16T03:25:19.326Z,990.84
2022-11-16T03:25:40.375Z,990.82
2022-11-16T03:26:01.429Z,990.84
2022-11-16T03:26:22.491Z,990.82
2022-11-16T03:26:43.580Z,990.82
2022-11-16T03:27:04.599Z,990.86
2022-11-16T03:27:25.651Z,990.86
2022-11-16T03:27:46.718Z,990.88
2022-11-16T03:28:07.750Z,990.84
2022-11-16T03:28:28.816Z,990.84
2022-11-16T03:28:49.870Z,990.88
2022-11-16T03:29:11.064Z,990.88
2022-11-16T03:29:32.124Z,990.88
2022-11-16T03:29:53.176Z,990.88
2022-11-16T03:30:14.231Z,990.88
2022-11-16T03:30:35.301Z,990.88
2022-11-16T03:30:56.359Z,990.86
2022-11-16T03:31:17.405Z,990.86
2022-11-16T03:31:38.480Z,990.88
2022-11-16T03:31:59.522Z,990.86
2022-11-16T03:32:20.578Z,990.90
2022-11-16T03:32:41.649Z,990.90
2022-11-16T03:33:02.697Z,990.90
2022-11-16T03:33:23.756Z,990.90
2022-11-16T03:33:44.812Z,990.90
2022-11-16T03:34:05.863Z,990.88
2022-11-16T03:34:26.991Z,990.90
2022-11-16T03:34:48.026Z,990.88
2022-11-16T03:35:09.074Z,990.88
2022-11-16T03:35:30.124Z,990.92
2022-11-16T03:35:51.184Z,990.90
2022-11-16T03:36:12.237Z,990.90
2022-11-16T03:36:33.290Z,990.90
2022-11-16T03:36:54.338Z,990.92
2022-11-16T03:37:15.414Z,990.88
2022-11-16T03:37:36.464Z,990.90
2022-11-16T03:37:57.525Z,990.92
2022-11-16T03:38:18.647Z,990.94
2022-11-16T03:38:39.717Z,990.92
2022-11-16T03:39:00.765Z,990.88
2022-11-16T03:39:21.816Z,990.92
2022-11-16T03:39:42.892Z,990.96
2022-11-16T03:40:03.942Z,990.94
2022-11-16T03:40:24.981Z,990.94
2022-11-16T03:40:46.031Z,990.92
2022-11-16T03:41:07.089Z,990.94
2022-11-16T03:41:28.139Z,990.92
2022-11-16T03:41:49.225Z,990.92
2022-11-16T03:42:10.261Z,990.92
2022-11-16T03:42:31.315Z,990.90
2022-11-16T03:42:52.371Z,990.88
2022-11-16T03:43:13.417Z,990.92
2022-11-16T03:43:34.498Z,990.92
2022-11-16T03:43:55.555Z,990.92
2022-11-16T03:44:16.604Z,990.94
2022-11-16T03:44:37.697Z,990.94
2022-11-16T03:44:58.707Z,990.92
2022-11-16T03:45:19.751Z,990.90
2022-11-16T03:45:40.802Z,990.94
2022-11-16T03:46:01.853Z,990.92
2022-11-16T03:46:22.903Z,990.98
2022-11-16T03:46:43.988Z,990.94
2022-11-16T03:47:05.020Z,990.96
2022-11-16T03:47:26.082Z,990.94
2022-11-16T03:47:47.118Z,990.96
2022-11-16T03:48:08.173Z,990.94
2022-11-16T03:48:29.329Z,990.96
2022-11-16T03:48:50.381Z,990.96
2022-11-16T03:49:11.439Z,990.96
2022-11-16T03:49:32.509Z,990.96
2022-11-16T03:49:53.560Z,990.94
2022-11-16T03:50:14.628Z,990.96
2022-11-16T03:50:35.670Z,990.96
2022-11-16T03:50:56.723Z,990.96
2022-11-16T03:51:17.773Z,990.96
2022-11-16T03:51:38.822Z,990.94
2022-11-16T03:51:59.920Z,990.94
2022-11-16T03:52:20.957Z,990.92
2022-11-16T03:52:42.005Z,990.90
2022-11-16T03:53:03.053Z,990.88
2022-11-16T03:53:24.104Z,990.88
2022-11-16T03:53:45.161Z,990.90
2022-11-16T03:54:06.221Z,990.90
2022-11-16T03:54:27.292Z,990.88
2022-11-16T03:54:48.328Z,990.92
2022-11-16T03:55:09.372Z,990.94
2022-11-16T03:55:30.435Z,990.92
2022-11-16T03:55:51.487Z,990.92
2022-11-16T03:56:12.535Z,990.88
2022-11-16T03:56:33.660Z,990.88
2022-11-16T03:56:54.737Z,990.88
2022-11-16T03:57:15.788Z,990.86
2022-11-16T03:57:36.849Z,990.86
2022-11-16T03:57:57.892Z,990.84
2022-11-16T03:58:18.943Z,990.84
2022-11-16T03:58:40.025Z,990.84
2022-11-16T03:59:01.132Z,990.82
2022-11-16T03:59:22.178Z,990.82
2022-11-16T03:59:43.209Z,990.82
2022-11-16T04:00:04.270Z,990.84
2022-11-16T04:00:25.318Z,990.82
2022-11-16T04:00:46.415Z,990.82
2022-11-16T04:01:07.474Z,990.84
2022-11-16T04:01:28.582Z,990.84
2022-11-16T04:01:49.631Z,990.82
2022-11-16T04:02:10.677Z,990.82
2022-11-16T04:02:31.801Z,990.82
2022-11-16T04:02:52.822Z,990.84
2022-11-16T04:03:13.886Z,990.82
2022-11-16T04:03:35.100Z,990.82
2022-11-16T04:03:56.271Z,990.84
2022-11-16T04:04:17.410Z,990.82
2022-11-16T04:04:38.498Z,990.84
2022-11-16T04:04:59.549Z,990.82
2022-11-16T04:05:20.618Z,990.84
2022-11-16T04:05:41.933Z,990.84
2022-11-16T04:06:02.974Z,990.82
2022-11-16T04:06:24.059Z,990.84
2022-11-16T04:06:45.098Z,990.82
2022-11-16T04:07:06.161Z,990.84
2022-11-16T04:07:27.261Z,990.86
2022-11-16T04:07:48.296Z,990.84
2022-11-16T04:08:09.346Z,990.84
2022-11-16T04:08:30.554Z,990.82
2022-11-16T04:08:51.628Z,990.84
2022-11-16T04:09:12.811Z,990.84
2022-11-16T04:09:33.868Z,990.84
2022-11-16T04:09:54.934Z,990.84
2022-11-16T04:10:15.979Z,990.88
2022-11-16T04:10:37.045Z,990.84
2022-11-16T04:10:58.121Z,990.90
2022-11-16T04:11:19.164Z,990.86
2022-11-16T04:11:40.205Z,990.88
2022-11-16T04:12:01.262Z,990.90
2022-11-16T04:12:22.311Z,990.88
2022-11-16T04:12:43.360Z,990.88
2022-11-16T04:13:04.411Z,990.90
2022-11-16T04:13:25.488Z,990.90
2022-11-16T04:13:46.529Z,990.94
2022-11-16T04:14:09.199Z,990.90
2022-11-16T04:14:30.562Z,990.90
2022-11-16T04:14:51.632Z,990.96
2022-11-16T04:15:12.690Z,990.94
2022-11-16T04:15:33.747Z,990.92
2022-11-16T04:15:54.792Z,990.96
2022-11-16T04:16:15.887Z,990.96
2022-11-16T04:16:36.934Z,990.96
2022-11-16T04:16:58.003Z,990.94
2022-11-16T04:17:19.089Z,990.94
2022-11-16T04:17:40.118Z,990.96
2022-11-16T04:18:01.178Z,990.94
2022-11-16T04:18:22.216Z,990.92
2022-11-16T04:18:43.271Z,990.94
2022-11-16T04:19:04.332Z,990.90
2022-11-16T04:19:25.374Z,990.90
2022-11-16T04:19:46.498Z,990.94
2022-11-16T04:20:07.549Z,990.90
2022-11-16T04:20:28.608Z,990.92
2022-11-16T04:20:49.675Z,990.94
2022-11-16T04:21:10.712Z,990.92
2022-11-16T04:21:31.792Z,990.92
2022-11-16T04:21:52.896Z,990.94
2022-11-16T04:22:13.912Z,990.92
2022-11-16T04:22:34.969Z,990.90
2022-11-16T04:22:56.019Z,990.86